sensor_id;sensor_type;location;lat;lon;timestamp;temperature;humidity
12819;DHT22;6474;53.474;9.894;2022-08-03T00:01:51;21.10;65.40
12819;DHT22;6474;53.474;9.894;2022-08-03T00:04:20;21.00;65.40
12819;DHT22;6474;53.474;9.894;2022-08-03T00:06:59;20.90;65.40
12819;DHT22;6474;53.474;9.894;2022-08-03T00:09:27;20.80;65.40
12819;DHT22;6474;53.474;9.894;2022-08-03T00:12:01;20.80;65.50
12819;DHT22;6474;53.474;9.894;2022-08-03T00:14:30;20.70;65.50
12819;DHT22;6474;53.474;9.894;2022-08-03T00:16:58;20.70;65.60
12819;DHT22;6474;53.474;9.894;2022-08-03T00:19:26;20.70;65.70
12819;DHT22;6474;53.474;9.894;2022-08-03T00:21:54;20.70;65.80
12819;DHT22;6474;53.474;9.894;2022-08-03T00:24:23;20.70;65.80
12819;DHT22;6474;53.474;9.894;2022-08-03T00:26:51;20.60;65.70
12819;DHT22;6474;53.474;9.894;2022-08-03T00:29:18;20.60;65.70
12819;DHT22;6474;53.474;9.894;2022-08-03T00:31:48;20.60;65.70
12819;DHT22;6474;53.474;9.894;2022-08-03T00:34:26;20.50;65.70
12819;DHT22;6474;53.474;9.894;2022-08-03T00:37:14;20.50;65.70
12819;DHT22;6474;53.474;9.894;2022-08-03T00:39:42;20.50;65.80
12819;DHT22;6474;53.474;9.894;2022-08-03T00:42:12;20.40;65.70
12819;DHT22;6474;53.474;9.894;2022-08-03T00:44:42;20.40;65.80
12819;DHT22;6474;53.474;9.894;2022-08-03T00:47:12;20.40;65.80
12819;DHT22;6474;53.474;9.894;2022-08-03T00:49:40;20.40;65.80
12819;DHT22;6474;53.474;9.894;2022-08-03T00:52:09;20.40;65.80
12819;DHT22;6474;53.474;9.894;2022-08-03T00:54:38;20.40;65.80
12819;DHT22;6474;53.474;9.894;2022-08-03T00:57:08;20.40;65.80
12819;DHT22;6474;53.474;9.894;2022-08-03T00:59:36;20.30;65.80
12819;DHT22;6474;53.474;9.894;2022-08-03T01:02:05;20.40;65.80
12819;DHT22;6474;53.474;9.894;2022-08-03T01:04:34;20.30;65.80
12819;DHT22;6474;53.474;9.894;2022-08-03T01:07:06;20.30;65.80
12819;DHT22;6474;53.474;9.894;2022-08-03T01:09:44;20.30;65.90
12819;DHT22;6474;53.474;9.894;2022-08-03T01:12:18;20.30;65.90
12819;DHT22;6474;53.474;9.894;2022-08-03T01:14:53;20.20;65.80
12819;DHT22;6474;53.474;9.894;2022-08-03T01:17:27;20.20;65.90
12819;DHT22;6474;53.474;9.894;2022-08-03T01:20:00;20.20;65.90
12819;DHT22;6474;53.474;9.894;2022-08-03T01:22:57;20.20;66.00
12819;DHT22;6474;53.474;9.894;2022-08-03T01:25:45;20.10;66.00
12819;DHT22;6474;53.474;9.894;2022-08-03T01:28:45;20.10;66.10
12819;DHT22;6474;53.474;9.894;2022-08-03T01:31:21;20.10;66.20
12819;DHT22;6474;53.474;9.894;2022-08-03T01:33:55;20.00;66.20
12819;DHT22;6474;53.474;9.894;2022-08-03T01:36:30;20.00;66.20
12819;DHT22;6474;53.474;9.894;2022-08-03T01:39:00;20.00;66.30
12819;DHT22;6474;53.474;9.894;2022-08-03T01:41:31;20.00;66.20
12819;DHT22;6474;53.474;9.894;2022-08-03T01:44:02;20.00;66.30
12819;DHT22;6474;53.474;9.894;2022-08-03T01:46:52;20.00;66.50
12819;DHT22;6474;53.474;9.894;2022-08-03T01:49:22;20.00;66.50
12819;DHT22;6474;53.474;9.894;2022-08-03T01:51:51;19.90;67.30
12819;DHT22;6474;53.474;9.894;2022-08-03T01:54:31;20.00;66.50
12819;DHT22;6474;53.474;9.894;2022-08-03T01:56:59;20.00;66.50
12819;DHT22;6474;53.474;9.894;2022-08-03T01:59:28;20.10;66.60
12819;DHT22;6474;53.474;9.894;2022-08-03T02:01:59;20.10;66.50
12819;DHT22;6474;53.474;9.894;2022-08-03T02:04:49;20.20;66.40
12819;DHT22;6474;53.474;9.894;2022-08-03T02:07:19;20.20;66.30
12819;DHT22;6474;53.474;9.894;2022-08-03T02:09:50;20.20;66.20
12819;DHT22;6474;53.474;9.894;2022-08-03T02:12:19;20.20;66.20
12819;DHT22;6474;53.474;9.894;2022-08-03T02:14:50;20.10;66.10
12819;DHT22;6474;53.474;9.894;2022-08-03T02:17:20;20.10;66.10
12819;DHT22;6474;53.474;9.894;2022-08-03T02:20:06;20.10;66.20
12819;DHT22;6474;53.474;9.894;2022-08-03T02:22:35;20.10;66.20
12819;DHT22;6474;53.474;9.894;2022-08-03T02:25:07;20.00;66.10
12819;DHT22;6474;53.474;9.894;2022-08-03T02:27:39;20.00;66.20
12819;DHT22;6474;53.474;9.894;2022-08-03T02:30:11;20.00;66.10
12819;DHT22;6474;53.474;9.894;2022-08-03T02:32:45;20.00;66.10
12819;DHT22;6474;53.474;9.894;2022-08-03T02:35:17;20.00;66.10
12819;DHT22;6474;53.474;9.894;2022-08-03T02:37:51;20.00;66.20
12819;DHT22;6474;53.474;9.894;2022-08-03T02:40:21;19.90;66.20
12819;DHT22;6474;53.474;9.894;2022-08-03T02:42:52;19.90;66.30
12819;DHT22;6474;53.474;9.894;2022-08-03T02:45:23;19.80;66.30
12819;DHT22;6474;53.474;9.894;2022-08-03T02:47:57;19.80;66.30
12819;DHT22;6474;53.474;9.894;2022-08-03T02:50:27;19.80;66.30
12819;DHT22;6474;53.474;9.894;2022-08-03T02:52:56;19.70;66.20
12819;DHT22;6474;53.474;9.894;2022-08-03T02:55:26;19.70;66.20
12819;DHT22;6474;53.474;9.894;2022-08-03T02:57:56;19.70;66.20
12819;DHT22;6474;53.474;9.894;2022-08-03T03:00:27;19.60;66.30
12819;DHT22;6474;53.474;9.894;2022-08-03T03:02:59;19.60;66.40
12819;DHT22;6474;53.474;9.894;2022-08-03T03:05:28;19.60;66.50
12819;DHT22;6474;53.474;9.894;2022-08-03T03:08:18;19.60;66.50
12819;DHT22;6474;53.474;9.894;2022-08-03T03:10:54;19.60;66.50
12819;DHT22;6474;53.474;9.894;2022-08-03T03:13:22;19.60;66.50
12819;DHT22;6474;53.474;9.894;2022-08-03T03:15:51;19.60;67.30
12819;DHT22;6474;53.474;9.894;2022-08-03T03:18:22;19.60;66.60
12819;DHT22;6474;53.474;9.894;2022-08-03T03:20:52;19.60;66.60
12819;DHT22;6474;53.474;9.894;2022-08-03T03:23:21;19.60;66.60
12819;DHT22;6474;53.474;9.894;2022-08-03T03:25:51;19.60;66.60
12819;DHT22;6474;53.474;9.894;2022-08-03T03:28:19;19.60;66.60
12819;DHT22;6474;53.474;9.894;2022-08-03T03:30:47;19.60;66.60
12819;DHT22;6474;53.474;9.894;2022-08-03T03:33:19;19.60;66.50
12819;DHT22;6474;53.474;9.894;2022-08-03T03:35:48;19.60;66.50
12819;DHT22;6474;53.474;9.894;2022-08-03T03:38:17;19.60;66.50
12819;DHT22;6474;53.474;9.894;2022-08-03T03:40:45;19.60;66.40
12819;DHT22;6474;53.474;9.894;2022-08-03T03:43:13;19.50;67.10
12819;DHT22;6474;53.474;9.894;2022-08-03T03:45:44;19.50;66.30
12819;DHT22;6474;53.474;9.894;2022-08-03T03:48:13;19.50;66.40
12819;DHT22;6474;53.474;9.894;2022-08-03T03:50:42;19.50;66.40
12819;DHT22;6474;53.474;9.894;2022-08-03T03:53:12;19.40;66.30
12819;DHT22;6474;53.474;9.894;2022-08-03T03:55:42;19.40;66.40
12819;DHT22;6474;53.474;9.894;2022-08-03T03:58:29;19.40;66.40
12819;DHT22;6474;53.474;9.894;2022-08-03T04:00:57;19.40;66.50
12819;DHT22;6474;53.474;9.894;2022-08-03T04:03:27;19.40;67.20
12819;DHT22;6474;53.474;9.894;2022-08-03T04:05:55;19.40;66.50
12819;DHT22;6474;53.474;9.894;2022-08-03T04:08:42;19.40;66.50
12819;DHT22;6474;53.474;9.894;2022-08-03T04:11:42;19.50;66.50
12819;DHT22;6474;53.474;9.894;2022-08-03T04:14:15;19.50;66.50
12819;DHT22;6474;53.474;9.894;2022-08-03T04:16:48;19.50;66.40
12819;DHT22;6474;53.474;9.894;2022-08-03T04:19:18;19.50;66.40
12819;DHT22;6474;53.474;9.894;2022-08-03T04:21:51;19.50;66.30
12819;DHT22;6474;53.474;9.894;2022-08-03T04:24:26;19.60;66.40
12819;DHT22;6474;53.474;9.894;2022-08-03T04:26:56;19.60;66.40
12819;DHT22;6474;53.474;9.894;2022-08-03T04:29:25;19.60;66.30
12819;DHT22;6474;53.474;9.894;2022-08-03T04:31:58;19.60;66.30
12819;DHT22;6474;53.474;9.894;2022-08-03T04:34:29;19.60;66.30
12819;DHT22;6474;53.474;9.894;2022-08-03T04:36:58;19.60;66.30
12819;DHT22;6474;53.474;9.894;2022-08-03T04:39:31;19.60;66.20
12819;DHT22;6474;53.474;9.894;2022-08-03T04:42:02;19.70;66.30
12819;DHT22;6474;53.474;9.894;2022-08-03T04:44:36;19.60;66.20
12819;DHT22;6474;53.474;9.894;2022-08-03T04:47:06;19.60;66.20
12819;DHT22;6474;53.474;9.894;2022-08-03T04:49:35;19.70;66.30
12819;DHT22;6474;53.474;9.894;2022-08-03T04:52:06;19.70;66.30
12819;DHT22;6474;53.474;9.894;2022-08-03T04:54:40;19.70;66.30
12819;DHT22;6474;53.474;9.894;2022-08-03T04:57:14;19.80;66.30
12819;DHT22;6474;53.474;9.894;2022-08-03T04:59:49;19.80;66.30
12819;DHT22;6474;53.474;9.894;2022-08-03T05:02:29;19.90;66.40
12819;DHT22;6474;53.474;9.894;2022-08-03T05:04:58;19.90;66.40
12819;DHT22;6474;53.474;9.894;2022-08-03T05:07:26;19.90;66.40
12819;DHT22;6474;53.474;9.894;2022-08-03T05:10:04;20.00;66.50
12819;DHT22;6474;53.474;9.894;2022-08-03T05:12:40;20.10;66.60
12819;DHT22;6474;53.474;9.894;2022-08-03T05:15:09;20.10;66.50
12819;DHT22;6474;53.474;9.894;2022-08-03T05:17:38;20.20;66.40
12819;DHT22;6474;53.474;9.894;2022-08-03T05:20:07;20.30;66.40
12819;DHT22;6474;53.474;9.894;2022-08-03T05:22:36;20.30;66.30
12819;DHT22;6474;53.474;9.894;2022-08-03T05:25:06;20.40;66.40
12819;DHT22;6474;53.474;9.894;2022-08-03T05:27:33;20.50;67.20
12819;DHT22;6474;53.474;9.894;2022-08-03T05:30:02;20.50;66.30
12819;DHT22;6474;53.474;9.894;2022-08-03T05:32:50;20.60;66.30
12819;DHT22;6474;53.474;9.894;2022-08-03T05:35:19;20.70;66.40
12819;DHT22;6474;53.474;9.894;2022-08-03T05:38:07;20.80;66.40
12819;DHT22;6474;53.474;9.894;2022-08-03T05:40:36;20.90;66.50
12819;DHT22;6474;53.474;9.894;2022-08-03T05:43:05;21.00;66.50
12819;DHT22;6474;53.474;9.894;2022-08-03T05:45:32;21.00;66.50
12819;DHT22;6474;53.474;9.894;2022-08-03T05:48:00;21.10;66.40
12819;DHT22;6474;53.474;9.894;2022-08-03T05:50:28;21.20;66.40
12819;DHT22;6474;53.474;9.894;2022-08-03T05:52:56;21.30;66.30
12819;DHT22;6474;53.474;9.894;2022-08-03T05:55:24;21.30;66.20
12819;DHT22;6474;53.474;9.894;2022-08-03T05:57:53;21.40;66.20
12819;DHT22;6474;53.474;9.894;2022-08-03T06:00:23;21.50;66.20
12819;DHT22;6474;53.474;9.894;2022-08-03T06:02:51;21.60;66.10
12819;DHT22;6474;53.474;9.894;2022-08-03T06:05:23;21.70;66.00
12819;DHT22;6474;53.474;9.894;2022-08-03T06:07:53;21.80;66.00
12819;DHT22;6474;53.474;9.894;2022-08-03T06:10:21;21.90;65.90
12819;DHT22;6474;53.474;9.894;2022-08-03T06:13:05;22.00;66.20
12819;DHT22;6474;53.474;9.894;2022-08-03T06:15:32;22.10;65.80
12819;DHT22;6474;53.474;9.894;2022-08-03T06:18:01;22.20;65.70
12819;DHT22;6474;53.474;9.894;2022-08-03T06:20:29;22.20;65.50
12819;DHT22;6474;53.474;9.894;2022-08-03T06:22:57;22.30;65.50
12819;DHT22;6474;53.474;9.894;2022-08-03T06:25:27;22.40;65.50
12819;DHT22;6474;53.474;9.894;2022-08-03T06:27:55;22.50;65.40
12819;DHT22;6474;53.474;9.894;2022-08-03T06:30:24;22.60;65.40
12819;DHT22;6474;53.474;9.894;2022-08-03T06:32:52;22.70;65.40
12819;DHT22;6474;53.474;9.894;2022-08-03T06:35:22;22.70;65.30
12819;DHT22;6474;53.474;9.894;2022-08-03T06:37:50;22.80;65.20
12819;DHT22;6474;53.474;9.894;2022-08-03T06:40:20;23.00;65.20
12819;DHT22;6474;53.474;9.894;2022-08-03T06:42:54;23.00;64.90
12819;DHT22;6474;53.474;9.894;2022-08-03T06:45:23;23.10;65.00
12819;DHT22;6474;53.474;9.894;2022-08-03T06:48:02;23.10;65.00
12819;DHT22;6474;53.474;9.894;2022-08-03T06:50:30;23.20;65.10
12819;DHT22;6474;53.474;9.894;2022-08-03T06:52:59;23.30;65.10
12819;DHT22;6474;53.474;9.894;2022-08-03T06:55:27;23.30;64.80
12819;DHT22;6474;53.474;9.894;2022-08-03T06:57:55;23.40;64.70
12819;DHT22;6474;53.474;9.894;2022-08-03T07:00:30;23.40;64.60
12819;DHT22;6474;53.474;9.894;2022-08-03T07:02:58;23.50;64.70
12819;DHT22;6474;53.474;9.894;2022-08-03T07:05:26;23.60;64.80
12819;DHT22;6474;53.474;9.894;2022-08-03T07:07:55;23.60;64.90
12819;DHT22;6474;53.474;9.894;2022-08-03T07:10:24;23.70;65.00
12819;DHT22;6474;53.474;9.894;2022-08-03T07:12:53;23.80;65.00
12819;DHT22;6474;53.474;9.894;2022-08-03T07:15:22;23.80;65.00
12819;DHT22;6474;53.474;9.894;2022-08-03T07:18:11;23.90;65.20
12819;DHT22;6474;53.474;9.894;2022-08-03T07:20:40;23.90;65.10
12819;DHT22;6474;53.474;9.894;2022-08-03T07:23:08;24.00;65.30
12819;DHT22;6474;53.474;9.894;2022-08-03T07:25:44;24.10;65.40
12819;DHT22;6474;53.474;9.894;2022-08-03T07:28:13;24.10;65.40
12819;DHT22;6474;53.474;9.894;2022-08-03T07:30:40;24.30;65.50
12819;DHT22;6474;53.474;9.894;2022-08-03T07:33:08;24.30;65.40
12819;DHT22;6474;53.474;9.894;2022-08-03T07:35:38;24.40;65.30
12819;DHT22;6474;53.474;9.894;2022-08-03T07:38:05;24.50;65.30
12819;DHT22;6474;53.474;9.894;2022-08-03T07:40:33;24.50;65.20
12819;DHT22;6474;53.474;9.894;2022-08-03T07:43:01;24.50;65.20
12819;DHT22;6474;53.474;9.894;2022-08-03T07:45:30;24.60;65.30
12819;DHT22;6474;53.474;9.894;2022-08-03T07:47:59;24.70;65.30
12819;DHT22;6474;53.474;9.894;2022-08-03T07:50:26;24.70;65.20
12819;DHT22;6474;53.474;9.894;2022-08-03T07:52:55;24.80;65.20
12819;DHT22;6474;53.474;9.894;2022-08-03T07:55:25;24.90;65.20
12819;DHT22;6474;53.474;9.894;2022-08-03T07:58:02;25.00;65.20
12819;DHT22;6474;53.474;9.894;2022-08-03T08:00:30;25.10;65.10
12819;DHT22;6474;53.474;9.894;2022-08-03T08:03:00;25.20;65.00
12819;DHT22;6474;53.474;9.894;2022-08-03T08:05:28;25.30;65.00
12819;DHT22;6474;53.474;9.894;2022-08-03T08:07:58;25.20;64.80
12819;DHT22;6474;53.474;9.894;2022-08-03T08:10:26;25.20;64.90
12819;DHT22;6474;53.474;9.894;2022-08-03T08:12:55;25.30;65.10
12819;DHT22;6474;53.474;9.894;2022-08-03T08:15:23;25.30;65.00
12819;DHT22;6474;53.474;9.894;2022-08-03T08:17:52;25.30;64.90
12819;DHT22;6474;53.474;9.894;2022-08-03T08:20:23;25.40;64.90
12819;DHT22;6474;53.474;9.894;2022-08-03T08:22:59;25.50;64.90
12819;DHT22;6474;53.474;9.894;2022-08-03T08:25:29;25.50;64.80
12819;DHT22;6474;53.474;9.894;2022-08-03T08:27:59;25.60;64.80
12819;DHT22;6474;53.474;9.894;2022-08-03T08:30:49;25.70;64.80
12819;DHT22;6474;53.474;9.894;2022-08-03T08:33:17;25.70;64.70
12819;DHT22;6474;53.474;9.894;2022-08-03T08:35:51;25.70;64.70
12819;DHT22;6474;53.474;9.894;2022-08-03T08:38:21;25.70;64.70
12819;DHT22;6474;53.474;9.894;2022-08-03T08:40:49;25.70;64.70
12819;DHT22;6474;53.474;9.894;2022-08-03T08:43:17;25.80;64.80
12819;DHT22;6474;53.474;9.894;2022-08-03T08:45:47;25.90;64.80
12819;DHT22;6474;53.474;9.894;2022-08-03T08:48:17;25.90;64.80
12819;DHT22;6474;53.474;9.894;2022-08-03T08:50:51;26.00;64.70
12819;DHT22;6474;53.474;9.894;2022-08-03T08:53:27;26.00;64.70
12819;DHT22;6474;53.474;9.894;2022-08-03T08:55:58;26.10;64.60
12819;DHT22;6474;53.474;9.894;2022-08-03T08:58:29;26.20;64.50
12819;DHT22;6474;53.474;9.894;2022-08-03T09:01:00;26.20;64.40
12819;DHT22;6474;53.474;9.894;2022-08-03T09:03:28;26.30;64.40
12819;DHT22;6474;53.474;9.894;2022-08-03T09:05:58;26.40;64.40
12819;DHT22;6474;53.474;9.894;2022-08-03T09:08:31;26.50;64.40
12819;DHT22;6474;53.474;9.894;2022-08-03T09:11:02;26.60;64.50
12819;DHT22;6474;53.474;9.894;2022-08-03T09:13:35;26.60;64.40
12819;DHT22;6474;53.474;9.894;2022-08-03T09:16:11;26.70;64.30
12819;DHT22;6474;53.474;9.894;2022-08-03T09:18:39;26.70;64.20
12819;DHT22;6474;53.474;9.894;2022-08-03T09:21:26;26.70;64.10
12819;DHT22;6474;53.474;9.894;2022-08-03T09:24:01;26.70;64.00
12819;DHT22;6474;53.474;9.894;2022-08-03T09:26:34;26.70;64.10
12819;DHT22;6474;53.474;9.894;2022-08-03T09:29:04;26.70;64.20
12819;DHT22;6474;53.474;9.894;2022-08-03T09:31:41;26.80;64.10
12819;DHT22;6474;53.474;9.894;2022-08-03T09:34:11;26.90;64.10
12819;DHT22;6474;53.474;9.894;2022-08-03T09:36:41;27.00;64.00
12819;DHT22;6474;53.474;9.894;2022-08-03T09:39:16;27.20;63.90
12819;DHT22;6474;53.474;9.894;2022-08-03T09:41:45;27.30;63.80
12819;DHT22;6474;53.474;9.894;2022-08-03T09:44:14;27.40;63.60
12819;DHT22;6474;53.474;9.894;2022-08-03T09:46:53;27.40;63.40
12819;DHT22;6474;53.474;9.894;2022-08-03T09:49:21;27.50;63.40
12819;DHT22;6474;53.474;9.894;2022-08-03T09:51:50;27.50;63.20
12819;DHT22;6474;53.474;9.894;2022-08-03T09:54:39;27.60;63.20
12819;DHT22;6474;53.474;9.894;2022-08-03T09:57:19;27.70;63.10
12819;DHT22;6474;53.474;9.894;2022-08-03T09:59:49;27.70;63.00
12819;DHT22;6474;53.474;9.894;2022-08-03T10:02:32;27.80;63.00
12819;DHT22;6474;53.474;9.894;2022-08-03T10:05:01;27.90;63.10
12819;DHT22;6474;53.474;9.894;2022-08-03T10:07:29;28.00;63.10
12819;DHT22;6474;53.474;9.894;2022-08-03T10:10:14;28.00;63.10
12819;DHT22;6474;53.474;9.894;2022-08-03T10:12:57;28.20;63.00
12819;DHT22;6474;53.474;9.894;2022-08-03T10:15:26;28.30;62.80
12819;DHT22;6474;53.474;9.894;2022-08-03T10:18:14;28.30;62.80
12819;DHT22;6474;53.474;9.894;2022-08-03T10:20:50;28.40;62.70
12819;DHT22;6474;53.474;9.894;2022-08-03T10:23:19;28.50;62.60
12819;DHT22;6474;53.474;9.894;2022-08-03T10:25:53;28.60;62.50
12819;DHT22;6474;53.474;9.894;2022-08-03T10:28:30;28.60;62.30
12819;DHT22;6474;53.474;9.894;2022-08-03T10:31:02;28.60;62.20
12819;DHT22;6474;53.474;9.894;2022-08-03T10:33:36;28.50;62.20
12819;DHT22;6474;53.474;9.894;2022-08-03T10:36:18;28.60;62.20
12819;DHT22;6474;53.474;9.894;2022-08-03T10:38:51;28.70;62.30
12819;DHT22;6474;53.474;9.894;2022-08-03T10:41:25;28.90;62.10
12819;DHT22;6474;53.474;9.894;2022-08-03T10:44:02;28.90;61.90
12819;DHT22;6474;53.474;9.894;2022-08-03T10:46:32;29.00;62.10
12819;DHT22;6474;53.474;9.894;2022-08-03T10:49:06;29.10;62.20
12819;DHT22;6474;53.474;9.894;2022-08-03T10:51:35;29.20;61.90
12819;DHT22;6474;53.474;9.894;2022-08-03T10:54:04;29.20;61.80
12819;DHT22;6474;53.474;9.894;2022-08-03T10:56:39;29.30;61.70
12819;DHT22;6474;53.474;9.894;2022-08-03T10:59:57;29.30;61.60
12819;DHT22;6474;53.474;9.894;2022-08-03T11:03:05;29.40;61.60
12819;DHT22;6474;53.474;9.894;2022-08-03T11:05:40;29.40;61.50
12819;DHT22;6474;53.474;9.894;2022-08-03T11:08:29;29.50;61.50
12819;DHT22;6474;53.474;9.894;2022-08-03T11:10:59;29.50;61.30
12819;DHT22;6474;53.474;9.894;2022-08-03T11:13:30;29.70;61.50
12819;DHT22;6474;53.474;9.894;2022-08-03T11:16:02;29.70;61.40
12819;DHT22;6474;53.474;9.894;2022-08-03T11:18:34;29.70;61.30
12819;DHT22;6474;53.474;9.894;2022-08-03T11:21:02;29.80;61.30
12819;DHT22;6474;53.474;9.894;2022-08-03T11:23:41;29.80;61.20
12819;DHT22;6474;53.474;9.894;2022-08-03T11:26:30;29.90;61.20
12819;DHT22;6474;53.474;9.894;2022-08-03T11:29:26;30.00;61.20
12819;DHT22;6474;53.474;9.894;2022-08-03T11:31:54;30.00;61.10
12819;DHT22;6474;53.474;9.894;2022-08-03T11:34:22;30.10;61.10
12819;DHT22;6474;53.474;9.894;2022-08-03T11:37:19;30.00;61.00
12819;DHT22;6474;53.474;9.894;2022-08-03T11:39:57;30.10;61.00
12819;DHT22;6474;53.474;9.894;2022-08-03T11:42:41;30.10;61.00
12819;DHT22;6474;53.474;9.894;2022-08-03T11:45:15;30.20;61.00
12819;DHT22;6474;53.474;9.894;2022-08-03T11:47:47;30.20;60.90
12819;DHT22;6474;53.474;9.894;2022-08-03T11:50:18;30.20;60.90
12819;DHT22;6474;53.474;9.894;2022-08-03T11:52:48;30.20;60.90
12819;DHT22;6474;53.474;9.894;2022-08-03T11:55:18;30.20;60.80
12819;DHT22;6474;53.474;9.894;2022-08-03T11:57:47;30.30;60.80
12819;DHT22;6474;53.474;9.894;2022-08-03T12:00:37;30.30;61.50
12819;DHT22;6474;53.474;9.894;2022-08-03T12:03:08;30.40;60.80
12819;DHT22;6474;53.474;9.894;2022-08-03T12:05:40;30.40;60.60
12819;DHT22;6474;53.474;9.894;2022-08-03T12:08:28;30.40;60.70
12819;DHT22;6474;53.474;9.894;2022-08-03T12:11:00;30.40;60.60
12819;DHT22;6474;53.474;9.894;2022-08-03T12:13:38;30.40;60.50
12819;DHT22;6474;53.474;9.894;2022-08-03T12:16:28;30.40;60.50
12819;DHT22;6474;53.474;9.894;2022-08-03T12:18:57;30.40;60.50
12819;DHT22;6474;53.474;9.894;2022-08-03T12:21:28;30.50;60.50
12819;DHT22;6474;53.474;9.894;2022-08-03T12:23:59;30.50;60.50
12819;DHT22;6474;53.474;9.894;2022-08-03T12:26:28;30.50;60.40
12819;DHT22;6474;53.474;9.894;2022-08-03T12:28:56;30.60;60.50
12819;DHT22;6474;53.474;9.894;2022-08-03T12:31:24;30.50;60.30
12819;DHT22;6474;53.474;9.894;2022-08-03T12:34:01;30.50;60.20
12819;DHT22;6474;53.474;9.894;2022-08-03T12:36:31;30.50;60.40
12819;DHT22;6474;53.474;9.894;2022-08-03T12:39:01;30.50;60.40
12819;DHT22;6474;53.474;9.894;2022-08-03T12:41:33;30.60;60.40
12819;DHT22;6474;53.474;9.894;2022-08-03T12:44:02;30.60;60.20
12819;DHT22;6474;53.474;9.894;2022-08-03T12:46:33;30.70;60.30
12819;DHT22;6474;53.474;9.894;2022-08-03T12:49:07;30.70;60.20
12819;DHT22;6474;53.474;9.894;2022-08-03T12:51:37;30.80;60.10
12819;DHT22;6474;53.474;9.894;2022-08-03T12:54:05;30.80;60.00
12819;DHT22;6474;53.474;9.894;2022-08-03T12:56:33;30.80;59.90
12819;DHT22;6474;53.474;9.894;2022-08-03T12:59:22;30.90;59.80
12819;DHT22;6474;53.474;9.894;2022-08-03T13:01:58;30.90;59.90
12819;DHT22;6474;53.474;9.894;2022-08-03T13:04:29;31.00;59.90
12819;DHT22;6474;53.474;9.894;2022-08-03T13:07:00;31.00;59.90
12819;DHT22;6474;53.474;9.894;2022-08-03T13:09:29;31.10;60.00
12819;DHT22;6474;53.474;9.894;2022-08-03T13:12:14;31.10;60.00
12819;DHT22;6474;53.474;9.894;2022-08-03T13:14:44;31.10;60.00
12819;DHT22;6474;53.474;9.894;2022-08-03T13:17:12;31.10;60.00
12819;DHT22;6474;53.474;9.894;2022-08-03T13:19:44;31.10;60.00
12819;DHT22;6474;53.474;9.894;2022-08-03T13:22:13;31.10;60.00
12819;DHT22;6474;53.474;9.894;2022-08-03T13:24:43;31.20;60.00
12819;DHT22;6474;53.474;9.894;2022-08-03T13:27:12;31.20;60.00
12819;DHT22;6474;53.474;9.894;2022-08-03T13:30:00;31.10;60.00
12819;DHT22;6474;53.474;9.894;2022-08-03T13:32:29;30.90;59.80
12819;DHT22;6474;53.474;9.894;2022-08-03T13:35:01;30.80;59.80
12819;DHT22;6474;53.474;9.894;2022-08-03T13:37:29;30.90;59.90
12819;DHT22;6474;53.474;9.894;2022-08-03T13:39:58;30.90;59.90
12819;DHT22;6474;53.474;9.894;2022-08-03T13:42:30;31.00;59.90
12819;DHT22;6474;53.474;9.894;2022-08-03T13:44:59;31.10;59.80
12819;DHT22;6474;53.474;9.894;2022-08-03T13:47:28;31.20;59.70
12819;DHT22;6474;53.474;9.894;2022-08-03T13:49:56;31.30;59.60
12819;DHT22;6474;53.474;9.894;2022-08-03T13:52:30;31.40;59.50
12819;DHT22;6474;53.474;9.894;2022-08-03T13:54:58;31.40;59.40
12819;DHT22;6474;53.474;9.894;2022-08-03T13:57:26;31.40;59.50
12819;DHT22;6474;53.474;9.894;2022-08-03T14:00:22;31.30;59.50
12819;DHT22;6474;53.474;9.894;2022-08-03T14:02:56;31.40;59.50
12819;DHT22;6474;53.474;9.894;2022-08-03T14:05:32;31.40;59.40
12819;DHT22;6474;53.474;9.894;2022-08-03T14:08:03;31.50;59.40
12819;DHT22;6474;53.474;9.894;2022-08-03T14:10:33;31.60;59.40
12819;DHT22;6474;53.474;9.894;2022-08-03T14:13:02;31.60;59.80
12819;DHT22;6474;53.474;9.894;2022-08-03T14:15:30;31.60;59.20
12819;DHT22;6474;53.474;9.894;2022-08-03T14:18:04;31.60;59.20
12819;DHT22;6474;53.474;9.894;2022-08-03T14:20:32;31.60;59.20
12819;DHT22;6474;53.474;9.894;2022-08-03T14:23:13;31.60;59.20
12819;DHT22;6474;53.474;9.894;2022-08-03T14:25:42;31.70;59.00
12819;DHT22;6474;53.474;9.894;2022-08-03T14:28:19;31.80;59.00
12819;DHT22;6474;53.474;9.894;2022-08-03T14:30:49;31.80;58.90
12819;DHT22;6474;53.474;9.894;2022-08-03T14:33:17;31.90;58.80
12819;DHT22;6474;53.474;9.894;2022-08-03T14:35:45;31.90;58.80
12819;DHT22;6474;53.474;9.894;2022-08-03T14:38:15;31.90;58.80
12819;DHT22;6474;53.474;9.894;2022-08-03T14:40:43;31.90;58.80
12819;DHT22;6474;53.474;9.894;2022-08-03T14:43:12;31.80;58.70
12819;DHT22;6474;53.474;9.894;2022-08-03T14:45:40;31.80;58.90
12819;DHT22;6474;53.474;9.894;2022-08-03T14:48:08;31.70;58.60
12819;DHT22;6474;53.474;9.894;2022-08-03T14:50:57;31.70;58.80
12819;DHT22;6474;53.474;9.894;2022-08-03T14:53:27;31.70;59.40
12819;DHT22;6474;53.474;9.894;2022-08-03T14:55:55;31.70;58.80
12819;DHT22;6474;53.474;9.894;2022-08-03T14:58:24;31.70;58.70
12819;DHT22;6474;53.474;9.894;2022-08-03T15:00:53;31.70;58.60
12819;DHT22;6474;53.474;9.894;2022-08-03T15:03:22;31.70;58.60
12819;DHT22;6474;53.474;9.894;2022-08-03T15:05:51;31.70;58.60
12819;DHT22;6474;53.474;9.894;2022-08-03T15:08:19;31.70;58.60
12819;DHT22;6474;53.474;9.894;2022-08-03T15:10:50;31.70;58.60
12819;DHT22;6474;53.474;9.894;2022-08-03T15:13:18;31.60;58.60
12819;DHT22;6474;53.474;9.894;2022-08-03T15:15:47;31.60;58.70
12819;DHT22;6474;53.474;9.894;2022-08-03T15:18:15;31.60;58.70
12819;DHT22;6474;53.474;9.894;2022-08-03T15:20:43;31.60;58.70
12819;DHT22;6474;53.474;9.894;2022-08-03T15:23:14;31.60;58.70
12819;DHT22;6474;53.474;9.894;2022-08-03T15:25:42;31.70;58.60
12819;DHT22;6474;53.474;9.894;2022-08-03T15:28:31;31.70;58.60
12819;DHT22;6474;53.474;9.894;2022-08-03T15:31:03;31.70;58.60
12819;DHT22;6474;53.474;9.894;2022-08-03T15:33:31;31.60;58.50
12819;DHT22;6474;53.474;9.894;2022-08-03T15:36:00;31.70;58.60
12819;DHT22;6474;53.474;9.894;2022-08-03T15:38:28;31.60;58.50
12819;DHT22;6474;53.474;9.894;2022-08-03T15:40:56;31.60;58.50
12819;DHT22;6474;53.474;9.894;2022-08-03T15:43:27;31.50;58.50
12819;DHT22;6474;53.474;9.894;2022-08-03T15:45:57;31.40;58.60
12819;DHT22;6474;53.474;9.894;2022-08-03T15:48:45;31.20;58.70
12819;DHT22;6474;53.474;9.894;2022-08-03T15:51:13;31.10;58.70
12819;DHT22;6474;53.474;9.894;2022-08-03T15:53:41;31.00;58.90
12819;DHT22;6474;53.474;9.894;2022-08-03T15:56:10;31.00;59.10
12819;DHT22;6474;53.474;9.894;2022-08-03T15:58:44;30.90;59.00
12819;DHT22;6474;53.474;9.894;2022-08-03T16:01:34;31.00;58.90
12819;DHT22;6474;53.474;9.894;2022-08-03T16:04:02;31.10;58.90
12819;DHT22;6474;53.474;9.894;2022-08-03T16:06:31;31.10;58.90
12819;DHT22;6474;53.474;9.894;2022-08-03T16:09:03;31.10;58.80
12819;DHT22;6474;53.474;9.894;2022-08-03T16:11:50;31.10;58.80
12819;DHT22;6474;53.474;9.894;2022-08-03T16:14:17;31.10;58.80
12819;DHT22;6474;53.474;9.894;2022-08-03T16:17:04;31.10;58.90
12819;DHT22;6474;53.474;9.894;2022-08-03T16:19:32;31.00;58.80